Terminal Aerodrome Forecast
Issued by NWS Sterling, VA

Current Version | Previous Version | Graphics & Text | Print | Product List | Glossary On
Versions: 1 2 3 4 5 6 7 8 9 10 11 12 13 14 15 16 17 18 19 20 21 22 23 24 25 26 27 28 29 30 31 32 33 34
526
FTUS41 KLWX 200301 AAA
TAFIAD
TAF AMD
KIAD 200301Z 2003/2106 19006KT 5SM BR BKN012 OVC090
     FM200600 19007KT 2SM -DZ BR OVC008 WS020/22035KT
     FM201300 20007KT 4SM BR BKN008 BKN015 WS020/23030KT
     FM201500 20009KT P6SM BKN025
     FM201600 20010G17KT P6SM SCT050 BKN150=

USA.gov is the U.S. government's official web portal to all federal, state and local government web resources and services.